sensor_id;sensor_type;location;lat;lon;timestamp;pressure;altitude;pressure_sealevel;temperature;humidity
79127;BME280;68528;48.814;8.904;2023-08-24T00:02:20;96638.91;;;16.93;79.56
79127;BME280;68528;48.814;8.904;2023-08-24T00:04:46;96632.59;;;16.82;80.20
79127;BME280;68528;48.814;8.904;2023-08-24T00:07:12;96628.66;;;16.73;80.04
79127;BME280;68528;48.814;8.904;2023-08-24T00:09:37;96626.69;;;16.73;79.74
79127;BME280;68528;48.814;8.904;2023-08-24T00:12:02;96633.41;;;16.72;79.42
79127;BME280;68528;48.814;8.904;2023-08-24T00:14:28;96621.59;;;16.68;79.97
79127;BME280;68528;48.814;8.904;2023-08-24T00:16:53;96612.88;;;16.63;80.01
79127;BME280;68528;48.814;8.904;2023-08-24T00:19:20;96616.06;;;16.61;80.07
79127;BME280;68528;48.814;8.904;2023-08-24T00:21:45;96608.53;;;16.58;80.43
79127;BME280;68528;48.814;8.904;2023-08-24T00:24:10;96606.56;;;16.59;80.88
79127;BME280;68528;48.814;8.904;2023-08-24T00:26:36;96601.03;;;16.59;80.54
79127;BME280;68528;48.814;8.904;2023-08-24T00:29:01;96613.28;;;16.61;80.15
79127;BME280;68528;48.814;8.904;2023-08-24T00:31:26;96608.16;;;16.70;79.93
79127;BME280;68528;48.814;8.904;2023-08-24T00:33:52;96615.25;;;16.71;80.05
79127;BME280;68528;48.814;8.904;2023-08-24T00:36:18;96603.41;;;16.67;80.28
79127;BME280;68528;48.814;8.904;2023-08-24T00:38:46;96591.56;;;16.63;80.30
79127;BME280;68528;48.814;8.904;2023-08-24T00:41:16;96600.28;;;16.51;81.27
79127;BME280;68528;48.814;8.904;2023-08-24T00:43:46;96591.19;;;16.58;81.04
79127;BME280;68528;48.814;8.904;2023-08-24T00:46:12;96574.19;;;16.52;80.50
79127;BME280;68528;48.814;8.904;2023-08-24T00:48:38;96586.44;;;16.58;80.73
79127;BME280;68528;48.814;8.904;2023-08-24T00:51:04;96573.81;;;16.54;80.86
79127;BME280;68528;48.814;8.904;2023-08-24T00:53:30;96573.78;;;16.64;80.62
79127;BME280;68528;48.814;8.904;2023-08-24T00:55:56;96570.59;;;16.69;79.92
79127;BME280;68528;48.814;8.904;2023-08-24T00:58:23;96569.44;;;16.70;80.15
79127;BME280;68528;48.814;8.904;2023-08-24T01:00:50;96578.13;;;16.72;80.37
79127;BME280;68528;48.814;8.904;2023-08-24T01:03:16;96571.00;;;16.68;80.37
79127;BME280;68528;48.814;8.904;2023-08-24T01:05:42;96563.13;;;16.66;80.43
79127;BME280;68528;48.814;8.904;2023-08-24T01:08:08;96565.06;;;16.73;80.03
79127;BME280;68528;48.814;8.904;2023-08-24T01:13:48;96572.56;;;16.69;80.01
79127;BME280;68528;48.814;8.904;2023-08-24T01:16:38;96569.06;;;16.61;80.48
79127;BME280;68528;48.814;8.904;2023-08-24T01:19:21;96574.22;;;16.56;80.34
79127;BME280;68528;48.814;8.904;2023-08-24T01:21:51;96563.13;;;16.52;80.63
79127;BME280;68528;48.814;8.904;2023-08-24T01:24:35;96561.53;;;16.47;80.65
79127;BME280;68528;48.814;8.904;2023-08-24T01:27:02;96565.09;;;16.48;80.93
79127;BME280;68528;48.814;8.904;2023-08-24T01:29:28;96556.03;;;16.40;80.83
79127;BME280;68528;48.814;8.904;2023-08-24T01:31:54;96546.97;;;16.33;81.19
79127;BME280;68528;48.814;8.904;2023-08-24T01:34:20;96551.72;;;16.29;81.96
79127;BME280;68528;48.814;8.904;2023-08-24T01:36:45;96560.78;;;16.33;81.95
79127;BME280;68528;48.814;8.904;2023-08-24T01:39:47;96559.97;;;16.39;81.66
79127;BME280;68528;48.814;8.904;2023-08-24T01:42:19;96562.34;;;16.48;81.71
79127;BME280;68528;48.814;8.904;2023-08-24T01:44:47;96568.66;;;16.52;81.63
79127;BME280;68528;48.814;8.904;2023-08-24T01:47:13;96558.00;;;16.40;81.76
79127;BME280;68528;48.814;8.904;2023-08-24T01:49:40;96571.06;;;16.36;82.00
79127;BME280;68528;48.814;8.904;2023-08-24T01:52:07;96576.59;;;16.32;82.04
79127;BME280;68528;48.814;8.904;2023-08-24T01:54:33;96572.66;;;16.19;82.92
79127;BME280;68528;48.814;8.904;2023-08-24T01:57:00;96577.00;;;16.24;82.58
79127;BME280;68528;48.814;8.904;2023-08-24T01:59:26;96574.63;;;16.19;82.58
79127;BME280;68528;48.814;8.904;2023-08-24T02:01:51;96574.22;;;16.17;82.97
79127;BME280;68528;48.814;8.904;2023-08-24T02:04:16;96565.56;;;16.15;83.34
79127;BME280;68528;48.814;8.904;2023-08-24T02:06:42;96567.13;;;16.19;82.93
79127;BME280;68528;48.814;8.904;2023-08-24T02:09:07;96573.03;;;16.21;82.66
79127;BME280;68528;48.814;8.904;2023-08-24T02:11:34;96552.50;;;16.12;82.74
79127;BME280;68528;48.814;8.904;2023-08-24T02:13:59;96554.50;;;16.08;82.76
79127;BME280;68528;48.814;8.904;2023-08-24T02:16:35;96549.78;;;16.05;83.45
79127;BME280;68528;48.814;8.904;2023-08-24T02:19:01;96557.66;;;15.99;83.76
79127;BME280;68528;48.814;8.904;2023-08-24T02:21:28;96561.63;;;16.09;83.66
79127;BME280;68528;48.814;8.904;2023-08-24T02:23:54;96549.00;;;16.01;83.38
79127;BME280;68528;48.814;8.904;2023-08-24T02:26:20;96538.72;;;15.94;83.47
79127;BME280;68528;48.814;8.904;2023-08-24T02:28:48;96567.13;;;16.12;83.12
79127;BME280;68528;48.814;8.904;2023-08-24T02:31:13;96560.41;;;16.17;83.37
79127;BME280;68528;48.814;8.904;2023-08-24T02:33:39;96568.72;;;16.17;83.09
79127;BME280;68528;48.814;8.904;2023-08-24T02:36:04;96551.34;;;16.06;83.78
79127;BME280;68528;48.814;8.904;2023-08-24T02:38:30;96556.09;;;16.09;83.95
79127;BME280;68528;48.814;8.904;2023-08-24T02:41:05;96540.28;;;16.09;83.69
79127;BME280;68528;48.814;8.904;2023-08-24T02:43:32;96551.75;;;16.15;83.66
79127;BME280;68528;48.814;8.904;2023-08-24T02:46:01;96541.88;;;16.10;83.27
79127;BME280;68528;48.814;8.904;2023-08-24T02:48:29;96548.59;;;16.13;83.82
79127;BME280;68528;48.814;8.904;2023-08-24T02:50:57;96536.34;;;16.00;84.05
79127;BME280;68528;48.814;8.904;2023-08-24T02:53:22;96553.72;;;16.00;84.47
79127;BME280;68528;48.814;8.904;2023-08-24T02:55:49;96527.66;;;15.91;83.85
79127;BME280;68528;48.814;8.904;2023-08-24T02:58:15;96523.72;;;15.95;84.35
79127;BME280;68528;48.814;8.904;2023-08-24T03:00:40;96532.41;;;15.94;84.18
79127;BME280;68528;48.814;8.904;2023-08-24T03:03:07;96536.34;;;16.03;83.68
79127;BME280;68528;48.814;8.904;2023-08-24T03:05:32;96532.00;;;16.06;83.38
79127;BME280;68528;48.814;8.904;2023-08-24T03:07:58;96530.03;;;16.06;82.89
79127;BME280;68528;48.814;8.904;2023-08-24T03:10:24;96529.25;;;16.02;83.55
79127;BME280;68528;48.814;8.904;2023-08-24T03:12:50;96527.28;;;15.96;83.47
79127;BME280;68528;48.814;8.904;2023-08-24T03:15:15;96519.78;;;15.96;83.67
79127;BME280;68528;48.814;8.904;2023-08-24T03:17:41;96522.94;;;15.95;83.68
79127;BME280;68528;48.814;8.904;2023-08-24T03:20:07;96526.09;;;15.97;84.10
79127;BME280;68528;48.814;8.904;2023-08-24T03:22:33;96530.84;;;16.07;83.42
79127;BME280;68528;48.814;8.904;2023-08-24T03:24:58;96523.31;;;16.11;83.67
79127;BME280;68528;48.814;8.904;2023-08-24T03:27:24;96515.06;;;16.00;84.60
79127;BME280;68528;48.814;8.904;2023-08-24T03:29:51;96511.09;;;15.91;84.83
79127;BME280;68528;48.814;8.904;2023-08-24T03:32:17;96500.06;;;15.84;84.93
79127;BME280;68528;48.814;8.904;2023-08-24T03:34:42;96504.81;;;15.94;84.70
79127;BME280;68528;48.814;8.904;2023-08-24T03:37:07;96500.47;;;15.96;84.79
79127;BME280;68528;48.814;8.904;2023-08-24T03:39:33;96492.16;;;16.00;84.62
79127;BME280;68528;48.814;8.904;2023-08-24T03:41:59;96485.03;;;16.09;83.88
79127;BME280;68528;48.814;8.904;2023-08-24T03:44:28;96484.22;;;16.16;84.00
79127;BME280;68528;48.814;8.904;2023-08-24T03:46:53;96483.47;;;16.15;84.32
79127;BME280;68528;48.814;8.904;2023-08-24T03:49:18;96485.00;;;16.27;83.69
79127;BME280;68528;48.814;8.904;2023-08-24T03:51:44;96483.00;;;16.31;83.33
79127;BME280;68528;48.814;8.904;2023-08-24T03:54:09;96469.94;;;16.42;82.90
79127;BME280;68528;48.814;8.904;2023-08-24T03:56:35;96473.50;;;16.46;82.82
79127;BME280;68528;48.814;8.904;2023-08-24T03:59:00;96474.69;;;16.56;82.75
79127;BME280;68528;48.814;8.904;2023-08-24T04:01:25;96469.09;;;16.70;81.89
79127;BME280;68528;48.814;8.904;2023-08-24T04:03:51;96465.44;;;16.83;81.28
79127;BME280;68528;48.814;8.904;2023-08-24T04:06:18;96471.34;;;16.92;80.83
79127;BME280;68528;48.814;8.904;2023-08-24T04:08:44;96467.72;;;17.06;80.27
79127;BME280;68528;48.814;8.904;2023-08-24T04:11:10;96460.97;;;17.10;79.85
79127;BME280;68528;48.814;8.904;2023-08-24T04:13:35;96464.16;;;17.05;80.75
79127;BME280;68528;48.814;8.904;2023-08-24T04:16:01;96464.63;;;16.90;81.19
79127;BME280;68528;48.814;8.904;2023-08-24T04:18:26;96459.50;;;16.88;81.50
79127;BME280;68528;48.814;8.904;2023-08-24T04:20:55;96459.53;;;16.81;81.72
79127;BME280;68528;48.814;8.904;2023-08-24T04:23:27;96451.66;;;16.80;81.51
79127;BME280;68528;48.814;8.904;2023-08-24T04:25:53;96456.38;;;16.79;82.03
79127;BME280;68528;48.814;8.904;2023-08-24T04:28:19;96453.25;;;16.74;81.95
79127;BME280;68528;48.814;8.904;2023-08-24T04:30:55;96455.63;;;16.75;82.12
79127;BME280;68528;48.814;8.904;2023-08-24T04:33:23;96451.63;;;16.83;82.18
79127;BME280;68528;48.814;8.904;2023-08-24T04:35:49;96461.91;;;16.79;82.03
79127;BME280;68528;48.814;8.904;2023-08-24T04:38:16;96461.97;;;16.72;82.65
79127;BME280;68528;48.814;8.904;2023-08-24T04:40:55;96469.88;;;16.70;82.96
79127;BME280;68528;48.814;8.904;2023-08-24T04:49:53;96451.31;;;16.67;82.79
79127;BME280;68528;48.814;8.904;2023-08-24T04:52:20;96462.34;;;16.74;82.74
79127;BME280;68528;48.814;8.904;2023-08-24T04:54:51;96464.66;;;16.86;82.72
79127;BME280;68528;48.814;8.904;2023-08-24T04:57:16;96463.47;;;16.87;82.68
79127;BME280;68528;48.814;8.904;2023-08-24T04:59:42;96454.38;;;16.87;82.30
79127;BME280;68528;48.814;8.904;2023-08-24T05:02:07;96454.34;;;16.90;82.57
79127;BME280;68528;48.814;8.904;2023-08-24T05:04:33;96442.13;;;16.88;82.27
79127;BME280;68528;48.814;8.904;2023-08-24T05:06:58;96446.00;;;17.01;82.38
79127;BME280;68528;48.814;8.904;2023-08-24T05:09:25;96431.78;;;16.99;82.22
79127;BME280;68528;48.814;8.904;2023-08-24T05:11:50;96446.69;;;17.15;81.08
79127;BME280;68528;48.814;8.904;2023-08-24T05:14:41;96420.16;;;17.21;80.26
79127;BME280;68528;48.814;8.904;2023-08-24T05:21:13;96407.72;;;17.51;79.26
79127;BME280;68528;48.814;8.904;2023-08-24T05:27:44;96418.66;;;17.65;80.25
79127;BME280;68528;48.814;8.904;2023-08-24T05:32:46;96432.00;;;17.77;79.92
79127;BME280;68528;48.814;8.904;2023-08-24T05:35:17;96428.75;;;17.85;78.46
79127;BME280;68528;48.814;8.904;2023-08-24T05:37:43;96424.81;;;17.86;80.31
79127;BME280;68528;48.814;8.904;2023-08-24T05:40:09;96421.22;;;17.86;80.47
79127;BME280;68528;48.814;8.904;2023-08-24T05:42:34;96408.81;;;18.01;78.84
79127;BME280;68528;48.814;8.904;2023-08-24T05:45:01;96411.78;;;18.17;80.63
79127;BME280;68528;48.814;8.904;2023-08-24T05:47:27;96417.97;;;18.32;80.12
79127;BME280;68528;48.814;8.904;2023-08-24T05:49:52;96409.09;;;18.47;78.80
79127;BME280;68528;48.814;8.904;2023-08-24T05:52:18;96414.81;;;18.63;78.03
79127;BME280;68528;48.814;8.904;2023-08-24T05:54:43;96415.06;;;18.76;77.20
79127;BME280;68528;48.814;8.904;2023-08-24T05:57:09;96415.19;;;18.96;75.53
79127;BME280;68528;48.814;8.904;2023-08-24T05:59:35;96421.63;;;19.16;73.35
79127;BME280;68528;48.814;8.904;2023-08-24T06:02:03;96427.06;;;19.23;73.55
79127;BME280;68528;48.814;8.904;2023-08-24T06:04:28;96428.66;;;19.24;75.53
79127;BME280;68528;48.814;8.904;2023-08-24T06:06:53;96430.16;;;19.28;74.90
79127;BME280;68528;48.814;8.904;2023-08-24T06:09:19;96431.75;;;19.29;77.99
79127;BME280;68528;48.814;8.904;2023-08-24T06:11:44;96430.66;;;19.23;77.65
79127;BME280;68528;48.814;8.904;2023-08-24T06:14:09;96435.41;;;19.23;77.61
79127;BME280;68528;48.814;8.904;2023-08-24T06:16:35;96426.13;;;19.06;78.17
79127;BME280;68528;48.814;8.904;2023-08-24T06:19:00;96438.63;;;19.21;74.78
79127;BME280;68528;48.814;8.904;2023-08-24T06:21:25;96439.28;;;19.29;73.93
79127;BME280;68528;48.814;8.904;2023-08-24T06:23:51;96441.38;;;19.21;77.80
79127;BME280;68528;48.814;8.904;2023-08-24T06:26:17;96443.44;;;19.17;76.25
79127;BME280;68528;48.814;8.904;2023-08-24T06:28:44;96454.75;;;19.30;73.02
79127;BME280;68528;48.814;8.904;2023-08-24T06:31:09;96465.59;;;19.47;72.23
79127;BME280;68528;48.814;8.904;2023-08-24T06:33:37;96477.97;;;19.70;71.65
79127;BME280;68528;48.814;8.904;2023-08-24T06:36:03;96493.47;;;19.67;73.53
79127;BME280;68528;48.814;8.904;2023-08-24T06:38:33;96492.22;;;19.72;71.42
79127;BME280;68528;48.814;8.904;2023-08-24T06:40:58;96512.69;;;19.81;71.50
79127;BME280;68528;48.814;8.904;2023-08-24T06:43:25;96518.03;;;19.95;73.85
79127;BME280;68528;48.814;8.904;2023-08-24T06:45:51;96520.44;;;19.93;70.66
79127;BME280;68528;48.814;8.904;2023-08-24T06:48:19;96524.44;;;19.92;72.53
79127;BME280;68528;48.814;8.904;2023-08-24T06:50:44;96504.13;;;19.72;75.67
79127;BME280;68528;48.814;8.904;2023-08-24T06:53:10;96485.59;;;19.62;74.20
79127;BME280;68528;48.814;8.904;2023-08-24T06:55:35;96466.94;;;19.63;73.52
79127;BME280;68528;48.814;8.904;2023-08-24T06:58:02;96468.41;;;19.71;74.03
79127;BME280;68528;48.814;8.904;2023-08-24T07:00:30;96461.94;;;19.77;74.33
79127;BME280;68528;48.814;8.904;2023-08-24T07:02:55;96473.31;;;20.09;71.07
79127;BME280;68528;48.814;8.904;2023-08-24T07:05:21;96471.16;;;20.20;74.98
79127;BME280;68528;48.814;8.904;2023-08-24T07:07:49;96452.34;;;20.28;74.45
79127;BME280;68528;48.814;8.904;2023-08-24T07:10:15;96450.78;;;20.27;73.68
79127;BME280;68528;48.814;8.904;2023-08-24T07:12:43;96438.88;;;20.26;73.15
79127;BME280;68528;48.814;8.904;2023-08-24T07:15:10;96449.78;;;20.37;73.04
79127;BME280;68528;48.814;8.904;2023-08-24T07:17:36;96451.94;;;20.49;73.19
79127;BME280;68528;48.814;8.904;2023-08-24T07:20:02;96459.66;;;20.61;72.02
79127;BME280;68528;48.814;8.904;2023-08-24T07:22:30;96453.34;;;20.96;69.60
79127;BME280;68528;48.814;8.904;2023-08-24T07:24:56;96460.03;;;21.86;70.27
79127;BME280;68528;48.814;8.904;2023-08-24T07:27:21;96448.63;;;22.99;61.83
79127;BME280;68528;48.814;8.904;2023-08-24T07:29:47;96437.69;;;23.80;62.64
79127;BME280;68528;48.814;8.904;2023-08-24T07:32:12;96436.28;;;24.57;58.94
79127;BME280;68528;48.814;8.904;2023-08-24T07:34:38;96432.34;;;24.88;57.12
79127;BME280;68528;48.814;8.904;2023-08-24T07:37:03;96432.28;;;25.32;59.46
79127;BME280;68528;48.814;8.904;2023-08-24T07:39:30;96436.44;;;25.49;55.40
79127;BME280;68528;48.814;8.904;2023-08-24T07:41:56;96439.59;;;26.09;57.07
79127;BME280;68528;48.814;8.904;2023-08-24T07:44:23;96439.03;;;26.77;50.50
79127;BME280;68528;48.814;8.904;2023-08-24T07:46:48;96442.47;;;26.90;51.99
79127;BME280;68528;48.814;8.904;2023-08-24T07:49:14;96441.38;;;26.61;51.40
79127;BME280;68528;48.814;8.904;2023-08-24T07:51:40;96443.53;;;26.66;50.63
79127;BME280;68528;48.814;8.904;2023-08-24T07:54:05;96452.56;;;27.24;49.73
79127;BME280;68528;48.814;8.904;2023-08-24T07:56:32;96452.69;;;27.80;50.51
79127;BME280;68528;48.814;8.904;2023-08-24T07:59:27;96461.88;;;28.23;49.19
79127;BME280;68528;48.814;8.904;2023-08-24T08:02:13;96463.13;;;27.89;47.92
79127;BME280;68528;48.814;8.904;2023-08-24T08:04:40;96450.31;;;28.21;49.92
79127;BME280;68528;48.814;8.904;2023-08-24T08:07:05;96445.84;;;28.52;48.38
79127;BME280;68528;48.814;8.904;2023-08-24T08:09:31;96429.75;;;28.53;48.17
79127;BME280;68528;48.814;8.904;2023-08-24T08:11:56;96435.09;;;28.89;45.42
79127;BME280;68528;48.814;8.904;2023-08-24T08:14:22;96449.72;;;29.61;43.91
79127;BME280;68528;48.814;8.904;2023-08-24T08:16:48;96432.63;;;29.99;42.56
79127;BME280;68528;48.814;8.904;2023-08-24T08:19:14;96429.03;;;29.98;43.96
79127;BME280;68528;48.814;8.904;2023-08-24T08:21:39;96430.25;;;29.77;47.72
79127;BME280;68528;48.814;8.904;2023-08-24T08:24:05;96444.50;;;30.03;43.46
79127;BME280;68528;48.814;8.904;2023-08-24T08:26:31;96441.34;;;29.08;45.27
79127;BME280;68528;48.814;8.904;2023-08-24T08:28:59;96452.28;;;28.29;45.97
79127;BME280;68528;48.814;8.904;2023-08-24T08:31:24;96451.91;;;28.60;44.10
79127;BME280;68528;48.814;8.904;2023-08-24T08:33:50;96440.38;;;29.40;47.43
79127;BME280;68528;48.814;8.904;2023-08-24T08:36:16;96442.72;;;30.05;41.33
79127;BME280;68528;48.814;8.904;2023-08-24T08:39:03;96443.94;;;30.19;46.23
79127;BME280;68528;48.814;8.904;2023-08-24T08:41:33;96446.69;;;30.68;43.99
79127;BME280;68528;48.814;8.904;2023-08-24T08:44:05;96444.66;;;30.94;41.36
79127;BME280;68528;48.814;8.904;2023-08-24T08:46:32;96448.72;;;31.14;44.05
79127;BME280;68528;48.814;8.904;2023-08-24T08:49:00;96451.19;;;31.52;40.20
79127;BME280;68528;48.814;8.904;2023-08-24T08:51:26;96441.75;;;31.35;41.25
79127;BME280;68528;48.814;8.904;2023-08-24T08:53:52;96444.00;;;31.51;42.90
79127;BME280;68528;48.814;8.904;2023-08-24T08:56:20;96451.56;;;31.96;40.24
79127;BME280;68528;48.814;8.904;2023-08-24T08:58:48;96435.44;;;32.56;36.49
79127;BME280;68528;48.814;8.904;2023-08-24T09:01:15;96443.34;;;31.98;39.29
79127;BME280;68528;48.814;8.904;2023-08-24T09:03:41;96433.31;;;32.03;38.99
79127;BME280;68528;48.814;8.904;2023-08-24T09:06:07;96426.38;;;32.46;39.98
79127;BME280;68528;48.814;8.904;2023-08-24T09:08:34;96421.00;;;32.54;41.89
79127;BME280;68528;48.814;8.904;2023-08-24T09:10:59;96420.28;;;31.80;41.07
79127;BME280;68528;48.814;8.904;2023-08-24T09:13:26;96418.44;;;31.45;40.16
79127;BME280;68528;48.814;8.904;2023-08-24T09:15:52;96412.38;;;31.58;40.07
79127;BME280;68528;48.814;8.904;2023-08-24T09:18:19;96397.19;;;32.34;38.33
79127;BME280;68528;48.814;8.904;2023-08-24T09:20:46;96388.91;;;32.90;35.66
79127;BME280;68528;48.814;8.904;2023-08-24T09:23:18;96395.06;;;32.77;41.57
79127;BME280;68528;48.814;8.904;2023-08-24T09:25:45;96382.53;;;33.17;34.63
79127;BME280;68528;48.814;8.904;2023-08-24T09:28:12;96388.72;;;33.32;37.82
79127;BME280;68528;48.814;8.904;2023-08-24T09:30:37;96383.31;;;33.56;34.40
79127;BME280;68528;48.814;8.904;2023-08-24T09:35:33;96391.25;;;32.97;39.35
79127;BME280;68528;48.814;8.904;2023-08-24T09:38:00;96378.50;;;32.59;37.90
79127;BME280;68528;48.814;8.904;2023-08-24T09:40:25;96374.50;;;32.34;36.04
79127;BME280;68528;48.814;8.904;2023-08-24T09:42:51;96362.56;;;32.73;38.31
79127;BME280;68528;48.814;8.904;2023-08-24T09:45:17;96359.28;;;33.02;37.27
79127;BME280;68528;48.814;8.904;2023-08-24T09:47:51;96354.69;;;33.43;37.67
79127;BME280;68528;48.814;8.904;2023-08-24T09:50:20;96353.63;;;33.02;36.25
79127;BME280;68528;48.814;8.904;2023-08-24T09:52:56;96331.16;;;32.17;38.82
79127;BME280;68528;48.814;8.904;2023-08-24T09:55:27;96337.53;;;32.01;37.89
79127;BME280;68528;48.814;8.904;2023-08-24T09:57:56;96332.00;;;32.40;38.95
79127;BME280;68528;48.814;8.904;2023-08-24T10:00:22;96315.63;;;32.66;38.60
79127;BME280;68528;48.814;8.904;2023-08-24T10:02:51;96316.44;;;32.89;37.67
79127;BME280;68528;48.814;8.904;2023-08-24T10:05:23;96308.97;;;32.91;38.79
79127;BME280;68528;48.814;8.904;2023-08-24T10:07:56;96307.91;;;31.97;38.48
79127;BME280;68528;48.814;8.904;2023-08-24T10:10:24;96304.44;;;31.82;39.12
79127;BME280;68528;48.814;8.904;2023-08-24T10:12:51;96300.41;;;31.94;39.27
79127;BME280;68528;48.814;8.904;2023-08-24T10:15:18;96279.91;;;32.15;39.27
79127;BME280;68528;48.814;8.904;2023-08-24T10:17:45;96290.59;;;32.48;38.70
79127;BME280;68528;48.814;8.904;2023-08-24T10:20:11;96281.88;;;32.85;38.83
79127;BME280;68528;48.814;8.904;2023-08-24T10:22:37;96286.28;;;33.08;39.01
79127;BME280;68528;48.814;8.904;2023-08-24T10:25:08;96278.75;;;32.72;37.72
79127;BME280;68528;48.814;8.904;2023-08-24T10:27:34;96280.91;;;32.99;40.59
79127;BME280;68528;48.814;8.904;2023-08-24T10:30:01;96281.63;;;33.66;36.24
79127;BME280;68528;48.814;8.904;2023-08-24T10:32:28;96294.81;;;33.13;37.12
79127;BME280;68528;48.814;8.904;2023-08-24T10:34:54;96265.56;;;31.82;37.45
79127;BME280;68528;48.814;8.904;2023-08-24T10:37:26;96278.84;;;32.02;42.62
79127;BME280;68528;48.814;8.904;2023-08-24T10:39:52;96268.34;;;31.71;39.60
79127;BME280;68528;48.814;8.904;2023-08-24T10:42:17;96267.06;;;32.31;37.77
79127;BME280;68528;48.814;8.904;2023-08-24T10:44:46;96258.31;;;32.34;37.98
79127;BME280;68528;48.814;8.904;2023-08-24T10:47:17;96248.13;;;33.03;38.57
79127;BME280;68528;48.814;8.904;2023-08-24T10:49:45;96250.50;;;32.02;37.63
79127;BME280;68528;48.814;8.904;2023-08-24T10:52:23;96253.41;;;32.29;37.78
79127;BME280;68528;48.814;8.904;2023-08-24T10:54:50;96226.44;;;32.67;36.29
79127;BME280;68528;48.814;8.904;2023-08-24T10:57:30;96229.53;;;33.30;37.42
79127;BME280;68528;48.814;8.904;2023-08-24T11:00:08;96231.03;;;33.59;40.22
79127;BME280;68528;48.814;8.904;2023-08-24T11:02:50;96233.41;;;32.94;38.08
79127;BME280;68528;48.814;8.904;2023-08-24T11:05:44;96228.19;;;33.59;37.36
79127;BME280;68528;48.814;8.904;2023-08-24T11:08:12;96226.19;;;33.15;38.30
79127;BME280;68528;48.814;8.904;2023-08-24T11:13:17;96224.47;;;33.91;35.92
79127;BME280;68528;48.814;8.904;2023-08-24T11:15:50;96223.63;;;33.17;36.70
79127;BME280;68528;48.814;8.904;2023-08-24T11:18:24;96222.59;;;33.20;37.19
79127;BME280;68528;48.814;8.904;2023-08-24T11:23:44;96209.41;;;33.22;36.87
79127;BME280;68528;48.814;8.904;2023-08-24T11:26:09;96197.84;;;33.94;34.71
79127;BME280;68528;48.814;8.904;2023-08-24T11:28:37;96190.50;;;33.58;36.78
79127;BME280;68528;48.814;8.904;2023-08-24T11:31:02;96194.72;;;34.04;36.43
79127;BME280;68528;48.814;8.904;2023-08-24T11:33:28;96190.47;;;34.62;36.55
79127;BME280;68528;48.814;8.904;2023-08-24T11:35:54;96193.56;;;34.64;36.28
79127;BME280;68528;48.814;8.904;2023-08-24T11:38:20;96184.69;;;34.79;35.87
79127;BME280;68528;48.814;8.904;2023-08-24T11:40:45;96185.03;;;34.64;37.37
79127;BME280;68528;48.814;8.904;2023-08-24T11:43:25;96183.25;;;34.26;35.70
79127;BME280;68528;48.814;8.904;2023-08-24T11:45:56;96189.16;;;33.76;35.97
79127;BME280;68528;48.814;8.904;2023-08-24T11:48:25;96171.69;;;34.13;36.94
79127;BME280;68528;48.814;8.904;2023-08-24T11:50:51;96170.56;;;33.75;38.07
79127;BME280;68528;48.814;8.904;2023-08-24T11:53:19;96183.25;;;33.68;39.70
79127;BME280;68528;48.814;8.904;2023-08-24T11:55:45;96185.72;;;33.88;38.68
79127;BME280;68528;48.814;8.904;2023-08-24T11:58:16;96179.75;;;34.44;37.46
79127;BME280;68528;48.814;8.904;2023-08-24T12:00:43;96181.81;;;35.08;35.16
79127;BME280;68528;48.814;8.904;2023-08-24T12:03:10;96172.84;;;34.69;34.70
79127;BME280;68528;48.814;8.904;2023-08-24T12:05:36;96172.25;;;33.94;38.32
79127;BME280;68528;48.814;8.904;2023-08-24T12:08:01;96165.72;;;33.64;43.18
79127;BME280;68528;48.814;8.904;2023-08-24T12:10:27;96163.06;;;33.77;39.32
79127;BME280;68528;48.814;8.904;2023-08-24T12:13:05;96158.06;;;34.00;37.74
79127;BME280;68528;48.814;8.904;2023-08-24T12:15:34;96152.84;;;34.45;37.87
79127;BME280;68528;48.814;8.904;2023-08-24T12:18:18;96152.13;;;34.74;35.32
79127;BME280;68528;48.814;8.904;2023-08-24T12:21:04;96144.50;;;34.58;34.91
79127;BME280;68528;48.814;8.904;2023-08-24T12:36:15;96108.00;;;33.86;38.28
79127;BME280;68528;48.814;8.904;2023-08-24T12:38:42;96104.00;;;34.11;43.89
79127;BME280;68528;48.814;8.904;2023-08-24T12:41:10;96086.66;;;34.50;38.13
79127;BME280;68528;48.814;8.904;2023-08-24T12:43:35;96090.38;;;34.69;37.29
79127;BME280;68528;48.814;8.904;2023-08-24T12:46:01;96085.16;;;34.73;37.55
79127;BME280;68528;48.814;8.904;2023-08-24T12:48:26;96091.59;;;34.14;36.05
79127;BME280;68528;48.814;8.904;2023-08-24T12:50:52;96084.66;;;34.39;39.37
79127;BME280;68528;48.814;8.904;2023-08-24T12:53:18;96082.03;;;34.47;37.98
79127;BME280;68528;48.814;8.904;2023-08-24T13:11:59;96065.03;;;33.65;39.30
79127;BME280;68528;48.814;8.904;2023-08-24T13:30:42;95999.13;;;34.67;41.23
79127;BME280;68528;48.814;8.904;2023-08-24T13:33:08;95990.88;;;35.12;35.52
79127;BME280;68528;48.814;8.904;2023-08-24T13:35:37;95990.41;;;34.84;35.29
79127;BME280;68528;48.814;8.904;2023-08-24T13:38:02;95974.69;;;35.01;37.76
79127;BME280;68528;48.814;8.904;2023-08-24T13:40:27;95963.84;;;35.00;33.54
79127;BME280;68528;48.814;8.904;2023-08-24T13:42:53;95970.94;;;35.12;33.65
79127;BME280;68528;48.814;8.904;2023-08-24T13:45:18;95965.22;;;34.93;36.50
79127;BME280;68528;48.814;8.904;2023-08-24T13:47:50;95978.88;;;35.37;30.91
79127;BME280;68528;48.814;8.904;2023-08-24T13:50:15;95972.66;;;35.20;35.99
79127;BME280;68528;48.814;8.904;2023-08-24T13:52:40;95965.41;;;34.52;32.05
79127;BME280;68528;48.814;8.904;2023-08-24T13:55:06;95973.38;;;35.02;34.91
79127;BME280;68528;48.814;8.904;2023-08-24T13:57:32;95967.09;;;35.28;31.61
79127;BME280;68528;48.814;8.904;2023-08-24T13:59:57;95979.66;;;34.95;32.63
79127;BME280;68528;48.814;8.904;2023-08-24T14:02:23;95985.09;;;34.50;37.10
79127;BME280;68528;48.814;8.904;2023-08-24T14:04:48;95994.38;;;33.91;34.64
79127;BME280;68528;48.814;8.904;2023-08-24T14:07:16;95998.50;;;33.55;38.68
79127;BME280;68528;48.814;8.904;2023-08-24T14:30:18;96034.69;;;30.58;44.29
79127;BME280;68528;48.814;8.904;2023-08-24T14:32:43;96038.78;;;30.57;42.79
79127;BME280;68528;48.814;8.904;2023-08-24T14:35:10;96067.06;;;30.57;42.70
79127;BME280;68528;48.814;8.904;2023-08-24T14:37:36;96086.22;;;30.42;44.04